createdAt,value
2019-05-13T00:00:14.101Z,7.10
2019-05-13T00:00:48.011Z,7.10
2019-05-13T00:01:23.760Z,7.10
2019-05-13T00:01:57.414Z,7.10
2019-05-13T00:02:31.371Z,7.10
2019-05-13T00:03:04.972Z,7.10
2019-05-13T00:03:38.751Z,7.10
2019-05-13T00:04:14.151Z,7.10
2019-05-13T00:04:48.339Z,7.10
2019-05-13T00:05:23.356Z,7.10
2019-05-13T00:05:57.404Z,7.10
2019-05-13T00:06:31.364Z,7.10
2019-05-13T00:07:05.155Z,7.10
2019-05-13T00:07:38.744Z,7.10
2019-05-13T00:08:13.939Z,7.10
2019-05-13T00:08:47.992Z,7.10
2019-05-13T00:09:24.320Z,7.10
2019-05-13T00:09:57.489Z,7.10
2019-05-13T00:10:31.290Z,7.10
2019-05-13T00:11:05.245Z,7.10
2019-05-13T00:11:39.210Z,7.10
2019-05-13T00:12:13.737Z,7.10
2019-05-13T00:12:48.189Z,7.10
2019-05-13T00:13:23.721Z,7.10
2019-05-13T00:13:57.792Z,7.10
2019-05-13T00:14:31.387Z,7.10
2019-05-13T00:15:06.388Z,7.10
2019-05-13T00:15:40.205Z,7.10
2019-05-13T00:16:14.285Z,7.10
2019-05-13T00:16:47.876Z,7.10
2019-05-13T00:17:23.706Z,7.10
2019-05-13T00:17:57.800Z,7.00
2019-05-13T00:18:33.771Z,7.10
2019-05-13T00:19:06.827Z,7.00
2019-05-13T00:19:40.833Z,7.00
2019-05-13T00:20:15.263Z,7.10
2019-05-13T00:20:49.044Z,7.10
2019-05-13T00:21:23.210Z,7.00
2019-05-13T00:21:57.246Z,7.10
2019-05-13T00:22:31.017Z,7.10
2019-05-13T00:23:05.000Z,7.00
2019-05-13T00:23:38.585Z,7.00
2019-05-13T00:24:13.791Z,7.00
2019-05-13T00:24:47.938Z,7.00
2019-05-13T00:25:24.080Z,7.00
2019-05-13T00:25:56.957Z,7.00
2019-05-13T00:26:30.925Z,7.00
2019-05-13T00:27:05.149Z,7.00
2019-05-13T00:27:38.946Z,7.00
2019-05-13T00:28:14.460Z,7.00
2019-05-13T00:28:48.157Z,7.00
2019-05-13T00:29:23.490Z,7.00
2019-05-13T00:29:57.591Z,7.00
2019-05-13T00:30:31.184Z,7.00
2019-05-13T00:31:04.964Z,7.00
2019-05-13T00:31:38.933Z,7.00
2019-05-13T00:32:13.474Z,7.00
2019-05-13T00:32:47.196Z,7.00
2019-05-13T00:33:21.184Z,7.00
2019-05-13T00:33:55.143Z,7.00
2019-05-13T00:34:28.919Z,7.00
2019-05-13T00:35:03.937Z,7.00
2019-05-13T00:35:38.281Z,7.00
2019-05-13T00:36:14.091Z,7.00
2019-05-13T00:36:47.672Z,7.00
2019-05-13T00:37:21.266Z,7.00
2019-05-13T00:37:55.045Z,7.00
2019-05-13T00:38:29.096Z,7.00
2019-05-13T00:39:04.694Z,7.00
2019-05-13T00:39:38.097Z,7.00
2019-05-13T00:40:14.280Z,7.00
2019-05-13T00:40:47.674Z,7.00
2019-05-13T00:41:21.449Z,7.00
2019-05-13T00:41:55.044Z,7.00
2019-05-13T00:42:29.483Z,7.00
2019-05-13T00:43:04.035Z,7.00
2019-05-13T00:43:38.106Z,7.00
2019-05-13T00:44:14.115Z,7.00
2019-05-13T00:44:47.162Z,7.00
2019-05-13T00:45:21.127Z,7.00
2019-05-13T00:45:55.087Z,7.00
2019-05-13T00:46:28.506Z,7.00
2019-05-13T00:47:04.401Z,7.00
2019-05-13T00:47:38.158Z,7.00
2019-05-13T00:48:14.096Z,7.00
2019-05-13T00:48:47.165Z,7.00
2019-05-13T00:49:21.137Z,7.00
2019-05-13T00:49:54.939Z,7.00
2019-05-13T00:50:28.928Z,7.00
2019-05-13T00:51:03.828Z,7.00
2019-05-13T00:51:38.093Z,7.00
2019-05-13T00:52:14.145Z,7.00
2019-05-13T00:52:47.844Z,7.00
2019-05-13T00:53:23.598Z,7.00
2019-05-13T00:53:56.868Z,7.00
2019-05-13T00:54:30.832Z,7.00
2019-05-13T00:55:05.946Z,7.00
2019-05-13T00:55:39.565Z,7.00
2019-05-13T00:56:13.548Z,7.00
2019-05-13T00:56:47.328Z,7.00
2019-05-13T00:57:23.668Z,7.00
2019-05-13T00:57:56.536Z,7.00
2019-05-13T00:58:30.317Z,7.00
2019-05-13T00:59:04.332Z,6.90
2019-05-13T00:59:38.345Z,6.90
2019-05-13T01:00:13.832Z,6.90
2019-05-13T01:00:47.365Z,6.90
2019-05-13T01:01:21.360Z,6.90
2019-05-13T01:01:55.148Z,6.90
2019-05-13T01:02:28.742Z,6.90
2019-05-13T01:03:03.970Z,6.90
2019-05-13T01:03:38.178Z,6.90
2019-05-13T01:04:14.151Z,6.90
2019-05-13T01:04:47.387Z,6.90
2019-05-13T01:05:23.270Z,6.90
2019-05-13T01:05:56.778Z,6.90
2019-05-13T01:06:30.746Z,6.90
2019-05-13T01:07:04.567Z,6.90
2019-05-13T01:07:38.960Z,6.90
2019-05-13T01:08:14.510Z,6.90
2019-05-13T01:08:48.511Z,6.90
2019-05-13T01:09:23.724Z,6.90
2019-05-13T01:09:57.717Z,6.90
2019-05-13T01:10:31.491Z,6.90
2019-05-13T01:11:05.453Z,6.90
2019-05-13T01:11:39.048Z,6.90
2019-05-13T01:12:13.407Z,6.90
2019-05-13T01:12:47.702Z,6.90
2019-05-13T01:13:23.682Z,6.80
2019-05-13T01:13:56.747Z,6.90
2019-05-13T01:14:30.709Z,6.90
2019-05-13T01:15:06.108Z,6.90
2019-05-13T01:15:39.888Z,6.80
2019-05-13T01:16:14.020Z,6.90
2019-05-13T01:16:48.144Z,6.80
2019-05-13T01:17:23.575Z,6.90
2019-05-13T01:17:57.530Z,6.90
2019-05-13T01:18:31.148Z,6.80
2019-05-13T01:19:04.942Z,6.90
2019-05-13T01:19:38.907Z,6.90
2019-05-13T01:20:14.450Z,6.80
2019-05-13T01:20:48.224Z,6.80
2019-05-13T01:21:23.926Z,6.90
2019-05-13T01:21:57.800Z,6.80
2019-05-13T01:22:31.581Z,6.80
2019-05-13T01:23:05.175Z,6.80
2019-05-13T01:23:39.157Z,6.80
2019-05-13T01:24:14.380Z,6.80
2019-05-13T01:24:48.630Z,6.80
2019-05-13T01:25:24.259Z,6.80
2019-05-13T01:25:57.652Z,6.90
2019-05-13T01:26:33.608Z,6.80
2019-05-13T01:27:07.218Z,6.80
2019-05-13T01:27:40.622Z,6.80
2019-05-13T01:28:14.591Z,6.80
2019-05-13T01:28:48.558Z,6.80
2019-05-13T01:29:23.820Z,6.80
2019-05-13T01:29:57.668Z,6.80
2019-05-13T01:30:34.245Z,6.80
2019-05-13T01:31:07.072Z,6.80
2019-05-13T01:31:43.248Z,6.80
2019-05-13T01:32:16.269Z,6.80
2019-05-13T01:32:50.053Z,6.80
2019-05-13T01:33:24.013Z,6.80
2019-05-13T01:33:57.978Z,6.80
2019-05-13T01:34:33.773Z,6.80
2019-05-13T01:35:07.010Z,6.80
2019-05-13T01:35:40.998Z,6.80
2019-05-13T01:36:14.770Z,6.80
2019-05-13T01:36:48.375Z,6.80
2019-05-13T01:37:24.797Z,6.80
2019-05-13T01:37:57.755Z,6.80
2019-05-13T01:38:33.962Z,6.80
2019-05-13T01:39:07.032Z,6.80
2019-05-13T01:39:40.816Z,6.80
2019-05-13T01:40:14.782Z,6.80
2019-05-13T01:40:48.777Z,6.80
2019-05-13T01:41:24.043Z,6.80
2019-05-13T01:41:57.810Z,6.80
2019-05-13T01:42:33.654Z,6.80
2019-05-13T01:43:07.202Z,6.80
2019-05-13T01:43:40.795Z,6.80
2019-05-13T01:44:14.764Z,6.80
2019-05-13T01:44:48.739Z,6.80
2019-05-13T01:45:24.097Z,6.80
2019-05-13T01:45:57.997Z,6.80
2019-05-13T01:46:31.791Z,6.80
2019-05-13T01:47:05.783Z,6.80
2019-05-13T01:47:39.734Z,6.80
2019-05-13T01:48:14.150Z,6.80
2019-05-13T01:48:48.616Z,6.80
2019-05-13T01:49:24.076Z,6.80
2019-05-13T01:49:58.060Z,6.80
2019-05-13T01:50:33.790Z,6.80
2019-05-13T01:51:07.262Z,6.80
2019-05-13T01:51:41.036Z,6.80
2019-05-13T01:52:15.025Z,6.80
2019-05-13T01:52:48.639Z,6.80
2019-05-13T01:53:24.354Z,6.80
2019-05-13T01:53:58.027Z,6.80
2019-05-13T01:54:33.840Z,6.80
2019-05-13T01:55:08.224Z,6.80
2019-05-13T01:55:44.082Z,6.80
2019-05-13T01:56:17.797Z,6.80
2019-05-13T01:56:53.531Z,6.80
2019-05-13T01:57:26.812Z,6.80
2019-05-13T01:58:00.795Z,6.80
2019-05-13T01:58:34.588Z,6.80
2019-05-13T01:59:08.548Z,6.80
2019-05-13T01:59:43.582Z,6.80
2019-05-13T02:00:17.693Z,6.80
2019-05-13T02:00:54.898Z,6.80
2019-05-13T02:01:27.259Z,6.80
2019-05-13T02:02:00.670Z,6.80
2019-05-13T02:02:34.630Z,6.80
2019-05-13T02:03:08.597Z,6.80
2019-05-13T02:03:44.272Z,6.80
2019-05-13T02:04:17.654Z,6.80
2019-05-13T02:04:53.267Z,6.80
2019-05-13T02:05:27.051Z,6.80
2019-05-13T02:06:01.018Z,6.80
2019-05-13T02:06:34.619Z,6.80
2019-05-13T02:07:08.405Z,6.80
2019-05-13T02:07:54.526Z,6.80
2019-05-13T02:08:17.753Z,6.80
2019-05-13T02:08:51.174Z,6.80
2019-05-13T02:09:25.634Z,6.80
2019-05-13T02:10:00.386Z,6.80
2019-05-13T02:10:54.552Z,6.80
2019-05-13T02:11:28.804Z,6.80
2019-05-13T02:12:04.913Z,6.80
2019-05-13T02:12:38.192Z,6.80
2019-05-13T02:13:14.580Z,6.80
2019-05-13T02:13:47.412Z,6.80
2019-05-13T02:14:23.522Z,6.80
2019-05-13T02:14:56.828Z,6.80
2019-05-13T02:15:30.434Z,6.80
2019-05-13T02:16:04.480Z,6.80
2019-05-13T02:16:38.855Z,6.80
2019-05-13T02:17:14.599Z,6.80
2019-05-13T02:17:47.883Z,6.80
2019-05-13T02:18:24.137Z,6.80
2019-05-13T02:18:57.452Z,6.80
2019-05-13T02:19:33.411Z,6.80
2019-05-13T02:20:06.945Z,6.80
2019-05-13T02:20:40.927Z,6.80
2019-05-13T02:21:14.729Z,6.80
2019-05-13T02:21:48.696Z,6.80
2019-05-13T02:22:24.621Z,6.80
2019-05-13T02:22:57.719Z,6.80
2019-05-13T02:23:33.847Z,6.80
2019-05-13T02:24:07.296Z,6.80
2019-05-13T02:24:40.709Z,6.80
2019-05-13T02:25:14.675Z,6.80
2019-05-13T02:25:48.657Z,6.80
2019-05-13T02:26:24.036Z,6.80
2019-05-13T02:26:57.743Z,6.80
2019-05-13T02:27:31.704Z,6.80
2019-05-13T02:28:09.528Z,6.80
2019-05-13T02:28:43.475Z,6.80
2019-05-13T02:29:16.343Z,6.80
2019-05-13T02:29:50.131Z,6.70
2019-05-13T02:30:26.800Z,6.80
2019-05-13T02:30:59.697Z,6.80
2019-05-13T02:31:45.520Z,6.70
2019-05-13T02:32:08.856Z,6.70
2019-05-13T02:32:43.135Z,6.80
2019-05-13T02:33:17.005Z,6.70
2019-05-13T02:33:53.063Z,6.80
2019-05-13T02:34:26.272Z,6.80
2019-05-13T02:35:02.603Z,6.70
2019-05-13T02:35:35.677Z,6.70
2019-05-13T02:36:09.264Z,6.80
2019-05-13T02:36:44.027Z,6.70
2019-05-13T02:37:18.425Z,6.80
2019-05-13T02:37:52.648Z,6.80
2019-05-13T02:38:30.119Z,6.70
2019-05-13T02:39:02.720Z,6.70
2019-05-13T02:39:36.908Z,6.80
2019-05-13T02:40:13.495Z,6.70
2019-05-13T02:40:45.920Z,6.80
2019-05-13T02:41:22.797Z,6.70
2019-05-13T02:41:55.308Z,6.70
2019-05-13T02:42:32.510Z,6.80
2019-05-13T02:43:04.541Z,6.80
2019-05-13T02:43:41.256Z,6.80
2019-05-13T02:44:13.942Z,6.70
2019-05-13T02:44:47.908Z,6.70
2019-05-13T02:45:22.697Z,6.80
2019-05-13T02:45:56.901Z,6.70
2019-05-13T02:46:33.665Z,6.70
2019-05-13T02:47:06.285Z,6.80
2019-05-13T02:47:43.891Z,6.80
2019-05-13T02:48:15.551Z,6.80
2019-05-13T02:48:52.574Z,6.80
2019-05-13T02:49:25.040Z,6.70
2019-05-13T02:50:01.942Z,6.80
2019-05-13T02:50:34.145Z,6.70
2019-05-13T02:51:08.100Z,6.70
2019-05-13T02:51:42.956Z,6.70
2019-05-13T02:52:16.684Z,6.70
2019-05-13T02:52:53.112Z,6.70
2019-05-13T02:53:26.253Z,6.70
2019-05-13T02:54:03.231Z,6.70
2019-05-13T02:54:35.292Z,6.70
2019-05-13T02:55:12.034Z,6.70
2019-05-13T02:55:44.704Z,6.70
2019-05-13T02:56:18.666Z,6.70
2019-05-13T02:56:52.771Z,6.70
2019-05-13T02:57:26.741Z,6.70
2019-05-13T02:58:03.244Z,6.70
2019-05-13T02:58:36.322Z,6.70
2019-05-13T02:59:12.992Z,6.70
2019-05-13T02:59:45.348Z,6.70
2019-05-13T03:00:19.336Z,6.70
2019-05-13T03:00:53.976Z,6.70
2019-05-13T03:01:28.025Z,6.70
2019-05-13T03:02:03.602Z,6.70
2019-05-13T03:02:37.425Z,6.70
2019-05-13T03:03:12.853Z,6.70
2019-05-13T03:03:46.578Z,6.70
2019-05-13T03:04:23.088Z,6.70
2019-05-13T03:04:55.966Z,6.70
2019-05-13T03:05:32.037Z,6.70
2019-05-13T03:06:05.006Z,6.70
2019-05-13T03:06:38.983Z,6.70
2019-05-13T03:07:12.945Z,6.70
2019-05-13T03:07:46.741Z,6.70
2019-05-13T03:08:38.562Z,6.70
2019-05-13T03:08:55.927Z,6.70
2019-05-13T03:09:32.550Z,6.70
2019-05-13T03:10:08.915Z,6.70
2019-05-13T03:10:43.350Z,6.70
2019-05-13T03:11:17.396Z,6.70
2019-05-13T03:11:53.650Z,6.70
2019-05-13T03:12:27.008Z,6.70
2019-05-13T03:13:03.326Z,6.70
2019-05-13T03:13:36.022Z,6.70
2019-05-13T03:14:12.828Z,6.70
2019-05-13T03:14:48.499Z,6.70
2019-05-13T03:15:23.092Z,6.70
2019-05-13T03:16:13.595Z,6.70
2019-05-13T03:16:54.195Z,6.70
2019-05-13T03:17:32.401Z,6.70
2019-05-13T03:18:05.865Z,6.70
2019-05-13T03:18:43.205Z,6.70
2019-05-13T03:19:15.247Z,6.70
2019-05-13T03:19:52.713Z,6.70
2019-05-13T03:20:24.475Z,6.70
2019-05-13T03:20:58.236Z,6.70
2019-05-13T03:21:32.711Z,6.70
2019-05-13T03:22:06.601Z,6.70
2019-05-13T03:22:43.265Z,6.70
2019-05-13T03:23:16.014Z,6.70
2019-05-13T03:23:52.516Z,6.70
2019-05-13T03:24:25.064Z,6.70
2019-05-13T03:25:02.836Z,6.70
2019-05-13T03:25:34.636Z,6.70
2019-05-13T03:26:08.416Z,6.70
2019-05-13T03:26:42.762Z,6.70
2019-05-13T03:27:20.234Z,6.70
2019-05-13T03:27:53.937Z,6.70
2019-05-13T03:28:27.997Z,6.70
2019-05-13T03:29:02.863Z,6.70
2019-05-13T03:29:36.887Z,6.70
2019-05-13T03:30:16.737Z,6.70
2019-05-13T03:30:46.599Z,6.70
2019-05-13T03:31:25.562Z,6.70
2019-05-13T03:31:56.834Z,6.70
2019-05-13T03:32:37.710Z,6.70
2019-05-13T03:33:10.918Z,6.70
2019-05-13T03:33:46.304Z,6.70
2019-05-13T03:34:17.250Z,6.70
2019-05-13T03:34:56.123Z,6.70
2019-05-13T03:35:28.087Z,6.70
2019-05-13T03:36:06.699Z,6.70
2019-05-13T03:36:44.985Z,6.70
2019-05-13T03:37:16.071Z,6.70
2019-05-13T03:37:52.773Z,6.70
2019-05-13T03:38:25.271Z,6.70
2019-05-13T03:39:05.831Z,6.70
2019-05-13T03:39:35.715Z,6.70
2019-05-13T03:40:09.517Z,6.70
2019-05-13T03:40:43.112Z,6.70
2019-05-13T03:41:18.390Z,6.70
2019-05-13T03:41:53.826Z,6.70
2019-05-13T03:42:27.767Z,6.70
2019-05-13T03:43:02.656Z,6.70
2019-05-13T03:43:36.814Z,6.70
2019-05-13T03:44:13.859Z,6.70
2019-05-13T03:44:47.913Z,6.70
2019-05-13T03:45:23.840Z,6.70
2019-05-13T03:45:57.820Z,6.70
2019-05-13T03:46:33.337Z,6.70
2019-05-13T03:47:07.245Z,6.70
2019-05-13T03:47:42.156Z,6.70
2019-05-13T03:48:16.551Z,6.70
2019-05-13T03:48:52.919Z,6.70
2019-05-13T03:49:26.283Z,6.70
2019-05-13T03:50:03.675Z,6.70
2019-05-13T03:50:35.878Z,6.70
2019-05-13T03:51:12.904Z,6.70
2019-05-13T03:51:45.494Z,6.70
2019-05-13T03:52:22.249Z,6.70
2019-05-13T03:52:54.504Z,6.70
2019-05-13T03:53:28.474Z,6.70
2019-05-13T03:54:03.271Z,6.70
2019-05-13T03:54:37.048Z,6.70
2019-05-13T03:55:13.014Z,6.70
2019-05-13T03:55:48.171Z,6.70
2019-05-13T03:56:23.658Z,6.70
2019-05-13T03:56:57.576Z,6.70
2019-05-13T03:57:33.714Z,6.70
2019-05-13T03:58:06.978Z,6.70
2019-05-13T03:58:43.298Z,6.70
2019-05-13T03:59:16.289Z,6.70
2019-05-13T03:59:52.621Z,6.70
2019-05-13T04:00:25.620Z,6.70
2019-05-13T04:01:02.489Z,6.70
2019-05-13T04:01:34.717Z,6.70
2019-05-13T04:02:08.683Z,6.70
2019-05-13T04:02:43.005Z,6.70
2019-05-13T04:03:17.069Z,6.70
2019-05-13T04:03:52.773Z,6.70
2019-05-13T04:04:26.784Z,6.70
2019-05-13T04:05:04.088Z,6.70
2019-05-13T04:05:36.443Z,6.70
2019-05-13T04:06:13.145Z,6.70
2019-05-13T04:06:45.458Z,6.70
2019-05-13T04:07:19.427Z,6.70
2019-05-13T04:07:53.223Z,6.70
2019-05-13T04:08:26.833Z,6.70
2019-05-13T04:09:17.079Z,6.70
2019-05-13T04:09:36.871Z,6.70
2019-05-13T04:10:13.147Z,6.70
2019-05-13T04:10:46.262Z,6.70
2019-05-13T04:11:22.651Z,6.70
2019-05-13T04:11:55.651Z,6.70
2019-05-13T04:12:33.092Z,6.70
2019-05-13T04:13:04.682Z,6.70
2019-05-13T04:13:38.647Z,6.70
2019-05-13T04:14:12.730Z,6.70
2019-05-13T04:14:46.524Z,6.70
2019-05-13T04:15:23.537Z,6.70
2019-05-13T04:15:55.799Z,6.80
2019-05-13T04:16:32.116Z,6.70
2019-05-13T04:17:05.193Z,6.70
2019-05-13T04:17:38.788Z,6.80
2019-05-13T04:18:12.822Z,6.80
2019-05-13T04:18:46.761Z,6.70
2019-05-13T04:19:23.170Z,6.70
2019-05-13T04:19:56.012Z,6.80
2019-05-13T04:20:33.000Z,6.80
2019-05-13T04:21:05.605Z,6.70
2019-05-13T04:21:42.700Z,6.70
2019-05-13T04:22:14.641Z,6.80
2019-05-13T04:22:48.613Z,6.70
2019-05-13T04:23:23.526Z,6.70
2019-05-13T04:23:57.732Z,6.70
2019-05-13T04:24:33.262Z,6.70
2019-05-13T04:25:07.539Z,6.70
2019-05-13T04:25:44.737Z,6.70
2019-05-13T04:26:17.219Z,6.70
2019-05-13T04:26:53.374Z,6.70
2019-05-13T04:27:26.319Z,6.70
2019-05-13T04:28:03.244Z,6.70
2019-05-13T04:28:35.650Z,6.80
2019-05-13T04:29:09.240Z,6.70
2019-05-13T04:29:43.504Z,6.70
2019-05-13T04:30:17.588Z,6.70
2019-05-13T04:30:52.553Z,6.70
2019-05-13T04:31:26.497Z,6.70
2019-05-13T04:32:02.239Z,6.70
2019-05-13T04:32:35.881Z,6.70
2019-05-13T04:33:09.931Z,6.70
2019-05-13T04:33:43.409Z,6.70
2019-05-13T04:34:17.367Z,6.80
2019-05-13T04:34:52.887Z,6.70
2019-05-13T04:35:26.913Z,6.70
2019-05-13T04:36:02.550Z,6.70
2019-05-13T04:36:36.140Z,6.70
2019-05-13T04:37:12.943Z,6.70
2019-05-13T04:37:45.560Z,6.70
2019-05-13T04:38:21.775Z,6.70
2019-05-13T04:38:54.601Z,6.70
2019-05-13T04:39:44.750Z,6.80
2019-05-13T04:40:07.979Z,6.70
2019-05-13T04:40:42.426Z,6.70
2019-05-13T04:41:16.648Z,6.70
2019-05-13T04:41:52.943Z,6.70
2019-05-13T04:42:26.078Z,6.70
2019-05-13T04:43:02.759Z,6.70
2019-05-13T04:43:35.295Z,6.80
2019-05-13T04:44:09.068Z,6.70
2019-05-13T04:44:43.194Z,6.80
2019-05-13T04:45:16.823Z,6.80
2019-05-13T04:45:52.482Z,6.80
2019-05-13T04:46:26.225Z,6.80
2019-05-13T04:47:03.222Z,6.80
2019-05-13T04:47:35.267Z,6.80
2019-05-13T04:48:12.695Z,6.80
2019-05-13T04:48:45.428Z,6.80
2019-05-13T04:49:19.205Z,6.70
2019-05-13T04:49:53.571Z,6.80
2019-05-13T04:50:27.658Z,6.80
2019-05-13T04:51:02.958Z,6.80
2019-05-13T04:51:37.051Z,6.80
2019-05-13T04:52:13.419Z,6.80
2019-05-13T04:52:46.068Z,6.80
2019-05-13T04:53:22.570Z,6.80
2019-05-13T04:53:57.230Z,6.80
2019-05-13T04:54:33.123Z,6.80
2019-05-13T04:55:06.696Z,6.80
2019-05-13T04:55:42.723Z,6.80
2019-05-13T04:56:16.098Z,6.80
2019-05-13T04:56:52.549Z,6.80
2019-05-13T04:57:25.307Z,6.80
2019-05-13T04:57:59.095Z,6.80
2019-05-13T04:58:33.057Z,6.80
2019-05-13T04:59:06.672Z,6.80
2019-05-13T04:59:44.463Z,6.80
2019-05-13T05:00:23.491Z,6.80
2019-05-13T05:01:16.862Z,6.80
2019-05-13T05:02:05.054Z,6.80
2019-05-13T05:02:51.251Z,6.80
2019-05-13T05:03:44.798Z,6.90
2019-05-13T05:04:38.699Z,6.80
2019-05-13T05:05:27.879Z,6.80
2019-05-13T05:06:22.864Z,6.90
2019-05-13T05:07:18.620Z,6.90
2019-05-13T05:08:07.598Z,6.90
2019-05-13T05:08:52.560Z,6.90
2019-05-13T05:10:16.791Z,6.90
2019-05-13T05:10:38.444Z,6.90
2019-05-13T05:11:13.346Z,6.90
2019-05-13T05:12:02.723Z,6.90
2019-05-13T05:12:56.471Z,6.90
2019-05-13T05:13:33.265Z,6.90
2019-05-13T05:14:24.955Z,6.90
2019-05-13T05:15:18.653Z,6.90
2019-05-13T05:16:17.740Z,6.90
2019-05-13T05:17:22.509Z,6.90
2019-05-13T05:18:32.633Z,6.90
2019-05-13T05:19:25.674Z,6.90
2019-05-13T05:20:14.617Z,7.00
2019-05-13T05:20:57.287Z,7.00
2019-05-13T05:21:43.262Z,7.00
2019-05-13T05:22:38.321Z,7.00
2019-05-13T05:23:24.189Z,7.00
2019-05-13T05:24:04.206Z,7.00
2019-05-13T05:24:43.785Z,7.00
2019-05-13T05:25:23.435Z,7.00
2019-05-13T05:26:05.783Z,7.10
2019-05-13T05:26:54.660Z,7.10
2019-05-13T05:27:58.217Z,7.10
2019-05-13T05:29:02.136Z,7.10
2019-05-13T05:30:14.667Z,7.10
2019-05-13T05:30:55.079Z,7.10
2019-05-13T05:31:34.835Z,7.10
2019-05-13T05:32:32.400Z,7.10
2019-05-13T05:33:33.157Z,7.10
2019-05-13T05:34:35.576Z,7.10
2019-05-13T05:35:29.240Z,7.20
2019-05-13T05:36:11.874Z,7.20
2019-05-13T05:37:11.788Z,7.20
2019-05-13T05:38:04.266Z,7.20
2019-05-13T05:38:57.727Z,7.20
2019-05-13T05:39:31.650Z,7.20
2019-05-13T05:40:05.799Z,7.30
2019-05-13T05:40:39.577Z,7.30
2019-05-13T05:41:16.144Z,7.30
2019-05-13T05:41:51.454Z,7.30
2019-05-13T05:42:25.402Z,7.30
2019-05-13T05:43:02.232Z,7.40
2019-05-13T05:43:37.429Z,7.40
2019-05-13T05:44:12.523Z,7.40
2019-05-13T05:44:46.621Z,7.40
2019-05-13T05:45:22.032Z,7.40
2019-05-13T05:45:56.154Z,7.40
2019-05-13T05:46:32.187Z,7.40
2019-05-13T05:47:05.364Z,7.40
2019-05-13T05:47:39.163Z,7.50
2019-05-13T05:48:14.774Z,7.50
2019-05-13T05:48:50.761Z,7.50
2019-05-13T05:49:26.002Z,7.50
2019-05-13T05:49:59.963Z,7.50
2019-05-13T05:50:33.931Z,7.60
2019-05-13T05:51:07.341Z,7.50
2019-05-13T05:51:41.874Z,7.60
2019-05-13T05:52:16.031Z,7.60
2019-05-13T05:52:51.361Z,7.60
2019-05-13T05:53:25.160Z,7.60
2019-05-13T05:53:59.217Z,7.60
2019-05-13T05:54:34.937Z,7.70
2019-05-13T05:55:11.164Z,7.70
2019-05-13T05:55:44.131Z,7.70
2019-05-13T05:56:17.979Z,7.70
2019-05-13T05:56:54.765Z,7.70
2019-05-13T05:57:28.723Z,7.70
2019-05-13T05:58:02.128Z,7.70
2019-05-13T05:58:36.091Z,7.70
2019-05-13T05:59:12.494Z,7.80
2019-05-13T05:59:46.258Z,7.70
2019-05-13T06:00:21.992Z,7.80
2019-05-13T06:00:56.168Z,7.80
2019-05-13T06:01:32.527Z,7.80
2019-05-13T06:02:07.007Z,7.80
2019-05-13T06:02:42.684Z,7.80
2019-05-13T06:03:16.732Z,7.80
2019-05-13T06:03:52.027Z,7.80
2019-05-13T06:04:26.543Z,7.80
2019-05-13T06:05:02.579Z,7.80
2019-05-13T06:05:36.828Z,7.80
2019-05-13T06:06:12.418Z,7.80
2019-05-13T06:06:46.993Z,7.80
2019-05-13T06:07:21.929Z,7.80
2019-05-13T06:07:56.162Z,7.80
2019-05-13T06:08:32.194Z,7.80
2019-05-13T06:09:06.989Z,7.80
2019-05-13T06:09:42.359Z,7.80
2019-05-13T06:10:16.066Z,7.80
2019-05-13T06:10:53.377Z,7.80
2019-05-13T06:11:25.638Z,7.80
2019-05-13T06:12:01.522Z,7.80
2019-05-13T06:12:34.656Z,7.70
2019-05-13T06:13:08.633Z,7.80
2019-05-13T06:13:42.408Z,7.80
2019-05-13T06:14:16.004Z,7.80
2019-05-13T06:14:52.242Z,7.80
2019-05-13T06:15:25.424Z,7.80
2019-05-13T06:16:01.699Z,7.70
2019-05-13T06:16:34.649Z,7.70
2019-05-13T06:17:08.432Z,7.70
2019-05-13T06:17:42.397Z,7.70
2019-05-13T06:18:16.841Z,7.70
2019-05-13T06:18:52.241Z,7.70
2019-05-13T06:19:25.867Z,7.70
2019-05-13T06:20:03.463Z,7.70
2019-05-13T06:20:35.328Z,7.70
2019-05-13T06:21:08.945Z,7.70
2019-05-13T06:21:42.928Z,7.60
2019-05-13T06:22:16.708Z,7.70
2019-05-13T06:22:51.600Z,7.70
2019-05-13T06:23:25.371Z,7.60
2019-05-13T06:23:59.153Z,7.70
2019-05-13T06:24:33.115Z,7.60
2019-05-13T06:25:07.848Z,7.60
2019-05-13T06:25:42.817Z,7.60
2019-05-13T06:26:16.875Z,7.60
2019-05-13T06:26:52.007Z,7.60
2019-05-13T06:27:26.054Z,7.60
2019-05-13T06:28:01.694Z,7.60
2019-05-13T06:28:35.277Z,7.60
2019-05-13T06:29:11.488Z,7.60
2019-05-13T06:29:48.845Z,7.60
2019-05-13T06:30:21.785Z,7.60
2019-05-13T06:30:55.847Z,7.60
2019-05-13T06:31:32.077Z,7.60
2019-05-13T06:32:18.140Z,7.60
2019-05-13T06:32:41.902Z,7.60
2019-05-13T06:33:16.195Z,7.60
2019-05-13T06:33:51.456Z,7.60
2019-05-13T06:34:25.457Z,7.60
2019-05-13T06:35:01.337Z,7.60
2019-05-13T06:35:34.667Z,7.60
2019-05-13T06:36:08.447Z,7.60
2019-05-13T06:36:42.417Z,7.60
2019-05-13T06:37:16.013Z,7.60
2019-05-13T06:37:51.888Z,7.60
2019-05-13T06:38:25.454Z,7.60
2019-05-13T06:39:02.017Z,7.60
2019-05-13T06:39:34.472Z,7.60
2019-05-13T06:40:08.429Z,7.60
2019-05-13T06:40:42.547Z,7.60
2019-05-13T06:41:16.474Z,7.60
2019-05-13T06:41:51.787Z,7.60
2019-05-13T06:42:25.670Z,7.60
2019-05-13T06:43:01.485Z,7.60
2019-05-13T06:43:35.079Z,7.60
2019-05-13T06:44:08.698Z,7.60
2019-05-13T06:44:43.148Z,7.70
2019-05-13T06:45:17.111Z,7.70
2019-05-13T06:45:51.453Z,7.70
2019-05-13T06:46:25.096Z,7.60
2019-05-13T06:46:59.058Z,7.60
2019-05-13T06:47:36.086Z,7.70
2019-05-13T06:48:08.447Z,7.70
2019-05-13T06:48:42.056Z,7.70
2019-05-13T06:49:16.027Z,7.70
2019-05-13T06:49:51.629Z,7.70
2019-05-13T06:50:25.432Z,7.70
2019-05-13T06:50:59.024Z,7.70
2019-05-13T06:51:32.804Z,7.70
2019-05-13T06:52:06.775Z,7.70
2019-05-13T06:52:42.467Z,7.70
2019-05-13T06:53:15.802Z,7.70
2019-05-13T06:53:51.752Z,7.70
2019-05-13T06:54:25.367Z,7.70
2019-05-13T06:54:59.168Z,7.70
2019-05-13T06:55:32.784Z,7.70
2019-05-13T06:56:06.746Z,7.70
2019-05-13T06:56:42.805Z,7.70
2019-05-13T06:57:16.207Z,7.70
2019-05-13T06:57:51.679Z,7.80
2019-05-13T06:58:25.234Z,7.80
2019-05-13T06:59:01.292Z,7.70
2019-05-13T06:59:34.811Z,7.70
2019-05-13T07:00:08.288Z,7.80
2019-05-13T07:00:42.953Z,7.80
2019-05-13T07:01:17.223Z,7.80
2019-05-13T07:01:51.466Z,7.80
2019-05-13T07:02:25.351Z,7.80
2019-05-13T07:03:02.080Z,7.80
2019-05-13T07:03:34.717Z,7.80
2019-05-13T07:04:11.432Z,7.90
2019-05-13T07:04:43.931Z,7.80
2019-05-13T07:05:17.712Z,7.80
2019-05-13T07:05:52.476Z,7.90
2019-05-13T07:06:27.477Z,7.90
2019-05-13T07:07:12.418Z,7.90
2019-05-13T07:07:36.606Z,7.90
2019-05-13T07:08:11.985Z,7.90
2019-05-13T07:08:46.149Z,7.90
2019-05-13T07:09:21.598Z,7.90
2019-05-13T07:09:55.375Z,7.90
2019-05-13T07:10:29.156Z,7.90
2019-05-13T07:11:16.826Z,8.00
2019-05-13T07:11:38.431Z,8.00
2019-05-13T07:12:12.278Z,8.00
2019-05-13T07:12:46.259Z,8.00
2019-05-13T07:13:21.798Z,8.00
2019-05-13T07:13:55.444Z,8.00
2019-05-13T07:14:29.408Z,8.00
2019-05-13T07:15:03.756Z,8.00
2019-05-13T07:15:37.548Z,8.00
2019-05-13T07:16:11.887Z,8.00
2019-05-13T07:16:46.113Z,8.00
2019-05-13T07:17:22.306Z,8.10
2019-05-13T07:17:55.522Z,8.10
2019-05-13T07:18:29.135Z,8.10
2019-05-13T07:19:02.907Z,8.10
2019-05-13T07:19:36.887Z,8.10
2019-05-13T07:20:11.632Z,8.10
2019-05-13T07:20:45.576Z,8.10
2019-05-13T07:21:21.727Z,8.10
2019-05-13T07:21:55.150Z,8.10
2019-05-13T07:22:31.954Z,8.10
2019-05-13T07:23:04.224Z,8.10
2019-05-13T07:23:38.204Z,8.10
2019-05-13T07:24:12.750Z,8.10
2019-05-13T07:24:46.988Z,8.20
2019-05-13T07:25:22.211Z,8.10
2019-05-13T07:25:56.168Z,8.20
2019-05-13T07:26:31.464Z,8.20
2019-05-13T07:27:05.797Z,8.20
2019-05-13T07:27:39.202Z,8.20
2019-05-13T07:28:13.178Z,8.20
2019-05-13T07:28:47.138Z,8.20
2019-05-13T07:29:24.029Z,8.20
2019-05-13T07:29:56.207Z,8.20
2019-05-13T07:30:39.408Z,8.20
2019-05-13T07:31:13.188Z,8.20
2019-05-13T07:31:47.155Z,8.20
2019-05-13T07:32:22.167Z,8.20
2019-05-13T07:32:56.097Z,8.30
2019-05-13T07:33:32.005Z,8.20
2019-05-13T07:34:05.681Z,8.30
2019-05-13T07:34:39.108Z,8.30
2019-05-13T07:35:14.594Z,8.30
2019-05-13T07:35:48.730Z,8.30
2019-05-13T07:36:22.702Z,8.30
2019-05-13T07:36:56.502Z,8.30
2019-05-13T07:37:31.799Z,8.40
2019-05-13T07:38:07.231Z,8.30
2019-05-13T07:38:41.626Z,8.30
2019-05-13T07:39:15.396Z,8.30
2019-05-13T07:39:49.176Z,8.40
2019-05-13T07:40:23.169Z,8.40
2019-05-13T07:41:05.130Z,8.40
2019-05-13T07:41:39.707Z,8.40
2019-05-13T07:42:14.161Z,8.40
2019-05-13T07:42:48.112Z,8.40
2019-05-13T07:43:21.889Z,8.40
2019-05-13T07:43:55.483Z,8.40
2019-05-13T07:44:29.439Z,8.50
2019-05-13T07:45:03.217Z,8.50
2019-05-13T07:45:37.201Z,8.50
2019-05-13T07:46:12.580Z,8.50
2019-05-13T07:46:46.245Z,8.50
2019-05-13T07:47:22.303Z,8.50
2019-05-13T07:47:55.887Z,8.50
2019-05-13T07:48:31.629Z,8.50
2019-05-13T07:49:05.000Z,8.50
2019-05-13T07:49:38.978Z,8.50
2019-05-13T07:50:12.951Z,8.50
2019-05-13T07:50:56.728Z,8.60
2019-05-13T07:51:22.485Z,8.60
2019-05-13T07:51:56.282Z,8.60
2019-05-13T07:52:31.976Z,8.60